Time;durP1;ratioP1;P1;durP2;ratioP2;P2;SDS_P1;SDS_P2;PMS_P1;PMS_P2;Temp;Humidity;BMP_temperature;BMP_pressure;BME280_temperature;BME280_humidity;BME280_pressure;Samples;Min_cycle;Max_cycle;Signal;HPM_P1;HPM_P2
2023/03/19 00:00:27;;;;;;;13.50;4.63;;;;;;;4.91;87.54;100685.09;5043489;28;20038;-45
2023/03/19 00:02:54;;;;;;;13.43;4.65;;;;;;;4.91;87.51;100697.97;5045433;28;20508;-43
2023/03/19 00:05:21;;;;;;;13.75;3.63;;;;;;;4.86;87.95;100698.09;5043335;28;20033;-43
2023/03/19 00:07:48;;;;;;;15.50;2.92;;;;;;;4.86;87.91;100709.06;5032707;28;20406;-43
2023/03/19 00:10:15;;;;;;;13.85;3.65;;;;;;;4.86;88.10;100703.59;5048731;28;20052;-43
2023/03/19 00:12:42;;;;;;;13.07;3.22;;;;;;;4.90;88.09;100719.09;5049935;28;20060;-44
2023/03/19 00:15:12;;;;;;;15.27;3.60;;;;;;;4.87;88.17;100729.91;5054910;28;20045;-44
2023/03/19 00:17:40;;;;;;;14.27;3.72;;;;;;;4.84;87.91;100719.53;5047775;28;20235;-43
2023/03/19 00:20:09;;;;;;;17.02;4.40;;;;;;;4.82;88.12;100727.25;5043348;28;20053;-44
2023/03/19 00:22:38;;;;;;;19.83;4.18;;;;;;;4.81;87.98;100726.47;5043637;28;20095;-43
2023/03/19 00:25:07;;;;;;;12.25;3.33;;;;;;;4.74;87.88;100715.06;5036304;28;20443;-43
2023/03/19 00:27:35;;;;;;;13.02;4.25;;;;;;;4.73;87.93;100718.13;5048185;28;20044;-43
2023/03/19 00:30:01;;;;;;;10.05;3.20;;;;;;;4.70;88.31;100724.22;5045243;28;20049;-43
2023/03/19 00:32:28;;;;;;;13.60;2.83;;;;;;;4.67;87.98;100722.09;5038336;28;20466;-44
2023/03/19 00:34:55;;;;;;;18.42;5.05;;;;;;;4.64;88.30;100726.25;5034902;28;20041;-44
2023/03/19 00:37:22;;;;;;;20.52;4.35;;;;;;;4.65;88.33;100716.13;5049622;28;20056;-44
2023/03/19 00:39:49;;;;;;;13.98;3.00;;;;;;;4.61;87.97;100713.16;5051954;28;20053;-47
2023/03/19 00:42:15;;;;;;;18.10;2.95;;;;;;;4.58;87.96;100715.72;5050003;28;20561;-50
2023/03/19 00:44:42;;;;;;;12.40;2.83;;;;;;;4.56;88.31;100720.69;5049744;28;20037;-45
2023/03/19 00:47:09;;;;;;;13.93;2.70;;;;;;;4.53;87.92;100713.06;5049772;28;20045;-44
2023/03/19 00:49:35;;;;;;;13.68;2.70;;;;;;;4.51;88.05;100715.31;5053352;28;20041;-44
2023/03/19 00:52:02;;;;;;;13.10;2.90;;;;;;;4.48;87.99;100707.69;5057917;28;20052;-44
2023/03/19 00:54:31;;;;;;;10.27;2.33;;;;;;;4.45;87.71;100705.59;5045349;28;20474;-44
2023/03/19 00:56:58;;;;;;;16.70;3.13;;;;;;;4.42;87.91;100700.72;5049765;28;20044;-51
2023/03/19 00:59:25;;;;;;;8.82;3.10;;;;;;;4.38;87.76;100705.16;5048847;28;20376;-44
2023/03/19 01:01:51;;;;;;;13.40;3.00;;;;;;;4.37;87.65;100711.78;5031723;28;20068;-44
2023/03/19 01:04:18;;;;;;;9.75;2.90;;;;;;;4.32;87.86;100702.53;5049491;28;20045;-44
2023/03/19 01:06:45;;;;;;;11.38;5.00;;;;;;;4.31;87.64;100706.38;5047713;28;20087;-44
2023/03/19 01:09:12;;;;;;;13.80;2.90;;;;;;;4.30;87.68;100706.69;5029580;28;20045;-44
2023/03/19 01:11:38;;;;;;;13.65;2.97;;;;;;;4.27;87.93;100699.88;5047619;28;20045;-44
2023/03/19 01:14:05;;;;;;;17.40;6.13;;;;;;;4.26;87.71;100711.16;5049289;28;20056;-44
2023/03/19 01:16:33;;;;;;;16.15;2.90;;;;;;;4.24;87.41;100705.16;5049617;28;20045;-44
2023/03/19 01:19:02;;;;;;;15.73;4.03;;;;;;;4.26;87.34;100716.66;5059553;28;20052;-44
2023/03/19 01:21:29;;;;;;;15.48;2.28;;;;;;;4.23;87.11;100720.81;5049446;28;20060;-44
2023/03/19 01:23:57;;;;;;;16.63;3.50;;;;;;;4.20;87.51;100732.38;5049297;28;20048;-44
2023/03/19 01:26:24;;;;;;;13.32;3.30;;;;;;;4.18;87.20;100742.78;5044280;28;20052;-44
2023/03/19 01:28:51;;;;;;;15.13;3.78;;;;;;;4.20;87.22;100751.56;5044355;28;20541;-50
2023/03/19 01:31:18;;;;;;;13.98;3.20;;;;;;;4.18;87.11;100752.97;5049596;28;20053;-44
2023/03/19 01:33:45;;;;;;;13.35;2.58;;;;;;;4.16;87.18;100745.03;5049181;28;20083;-44
2023/03/19 01:36:12;;;;;;;11.43;3.37;;;;;;;4.13;87.32;100745.63;5029929;28;20506;-44
2023/03/19 01:38:39;;;;;;;9.18;3.28;;;;;;;4.09;86.99;100752.84;5030876;28;20071;-48
2023/03/19 01:41:06;;;;;;;17.00;4.65;;;;;;;4.05;87.21;100762.75;5049526;28;20041;-49
2023/03/19 01:43:33;;;;;;;11.82;2.97;;;;;;;4.05;87.25;100761.97;5049114;28;20045;-44
2023/03/19 01:46:15;;;;;;;12.38;2.88;;;;;;;4.03;87.24;100764.19;5048024;28;20083;-44
2023/03/19 01:48:41;;;;;;;12.85;3.25;;;;;;;4.01;87.04;100750.81;5049490;28;20045;-44
2023/03/19 01:51:12;;;;;;;8.40;2.53;;;;;;;4.02;86.98;100754.34;5031913;28;20075;-44
2023/03/19 01:53:43;;;;;;;18.55;2.70;;;;;;;3.98;87.08;100754.13;5049007;28;20131;-44
2023/03/19 01:56:16;;;;;;;12.52;3.17;;;;;;;3.98;87.09;100751.41;5048685;28;20086;-44
2023/03/19 01:58:47;;;;;;;17.33;3.03;;;;;;;3.96;87.06;100752.81;5049226;28;20057;-44
2023/03/19 02:01:14;;;;;;;8.10;2.27;;;;;;;3.93;87.04;100751.50;5048888;28;20426;-44
2023/03/19 02:03:41;;;;;;;11.32;2.55;;;;;;;3.92;86.69;100762.75;5044265;28;20296;-44
2023/03/19 02:06:11;;;;;;;17.17;3.53;;;;;;;3.91;87.03;100761.13;5047849;28;20048;-49
2023/03/19 02:08:39;;;;;;;13.00;2.95;;;;;;;3.87;86.99;100771.84;5048375;28;20495;-44
2023/03/19 02:11:06;;;;;;;12.07;5.35;;;;;;;3.86;86.78;100775.72;5048397;28;20051;-44
2023/03/19 02:13:33;;;;;;;14.30;3.63;;;;;;;3.81;87.00;100773.06;5036783;28;20073;-45
2023/03/19 02:16:01;;;;;;;14.98;2.95;;;;;;;3.77;86.83;100766.56;5038239;28;20053;-44
2023/03/19 02:18:28;;;;;;;16.25;3.72;;;;;;;3.73;86.95;100771.03;5054643;28;20041;-44
2023/03/19 02:21:15;;;;;;;16.63;3.25;;;;;;;3.70;86.95;100771.63;5040927;28;20045;-44
2023/03/19 02:24:10;;;;;;;16.63;4.63;;;;;;;3.67;87.14;100773.03;5048328;28;20037;-44
2023/03/19 02:26:37;;;;;;;11.10;2.60;;;;;;;3.69;87.24;100768.06;5028489;28;20057;-47
2023/03/19 02:29:04;;;;;;;8.13;2.63;;;;;;;3.69;87.10;100769.97;5048700;28;20522;-43
2023/03/19 02:31:31;;;;;;;17.58;4.10;;;;;;;3.70;87.07;100771.63;5047323;28;20041;-44
2023/03/19 02:34:00;;;;;;;19.88;3.08;;;;;;;3.71;87.04;100773.22;5047247;28;20406;-46
2023/03/19 02:36:36;;;;;;;12.95;3.13;;;;;;;3.72;87.41;100779.50;5043476;28;20505;-46
2023/03/19 02:39:07;;;;;;;12.20;3.22;;;;;;;3.71;87.17;100767.75;5048769;28;20471;-44
2023/03/19 02:41:38;;;;;;;20.30;4.10;;;;;;;3.72;87.28;100774.84;5048747;28;20037;-44
2023/03/19 02:44:06;;;;;;;8.38;3.67;;;;;;;3.71;87.17;100773.22;5048095;28;20041;-44
2023/03/19 02:46:33;;;;;;;15.35;3.53;;;;;;;3.70;87.01;100771.63;5048709;28;20106;-44
2023/03/19 02:49:00;;;;;;;13.88;3.88;;;;;;;3.67;86.92;100770.28;5048301;28;20052;-47
2023/03/19 02:51:27;;;;;;;16.50;2.60;;;;;;;3.69;87.21;100769.97;5048450;28;20041;-45
2023/03/19 02:53:54;;;;;;;11.93;2.75;;;;;;;3.67;87.05;100761.25;5047503;28;20045;-44
2023/03/19 02:56:21;;;;;;;13.60;3.50;;;;;;;3.64;87.19;100757.19;5048229;28;20045;-47
2023/03/19 02:58:47;;;;;;;15.70;3.10;;;;;;;3.61;87.10;100760.53;5048100;28;20055;-44
2023/03/19 03:01:14;;;;;;;16.55;3.60;;;;;;;3.58;87.10;100757.56;5088230;22;20056;-44
2023/03/19 03:03:41;;;;;;;7.10;3.00;;;;;;;3.56;87.22;100771.56;5053821;28;20049;-44
2023/03/19 03:06:08;;;;;;;8.68;3.50;;;;;;;3.56;87.21;100784.44;5047173;28;20053;-44
2023/03/19 03:08:35;;;;;;;14.50;3.35;;;;;;;3.54;87.11;100776.53;5040041;28;20041;-43
2023/03/19 03:11:02;;;;;;;10.73;2.65;;;;;;;3.51;86.86;100785.31;5045967;28;20558;-44
2023/03/19 03:13:29;;;;;;;21.42;4.90;;;;;;;3.50;86.99;100780.94;5048067;28;20087;-44
2023/03/19 03:15:55;;;;;;;8.55;3.13;;;;;;;3.49;87.40;100789.47;5042319;28;20038;-43
2023/03/19 03:18:22;;;;;;;11.20;2.58;;;;;;;3.47;87.51;100788.94;5042807;28;20041;-44
2023/03/19 03:20:49;;;;;;;13.85;3.00;;;;;;;3.45;87.08;100781.03;5044435;28;20064;-44
2023/03/19 03:23:15;;;;;;;12.20;2.65;;;;;;;3.44;87.30;100775.88;5047710;28;20140;-51
2023/03/19 03:25:42;;;;;;;11.77;2.75;;;;;;;3.40;87.02;100766.59;5046499;28;20045;-44
2023/03/19 03:28:09;;;;;;;11.70;3.55;;;;;;;3.38;87.32;100785.25;5044998;28;20056;-44
2023/03/19 03:30:37;;;;;;;14.15;3.17;;;;;;;3.37;87.09;100783.63;5031585;28;20052;-44
2023/03/19 03:33:03;;;;;;;14.77;3.40;;;;;;;3.40;87.07;100788.50;5048062;28;20519;-44
2023/03/19 03:35:31;;;;;;;8.57;2.20;;;;;;;3.38;87.54;100793.47;5043509;28;20041;-44
2023/03/19 03:37:58;;;;;;;8.93;2.22;;;;;;;3.38;87.47;100793.47;5029567;28;20134;-44
2023/03/19 03:40:24;;;;;;;17.00;3.58;;;;;;;3.34;87.13;100790.50;5049037;28;20057;-44
2023/03/19 03:42:51;;;;;;;6.45;2.17;;;;;;;3.34;87.52;100795.16;5050975;28;20398;-44
2023/03/19 03:45:18;;;;;;;15.15;2.92;;;;;;;3.31;87.16;100782.09;5044409;28;20076;-46
2023/03/19 03:47:45;;;;;;;9.75;2.25;;;;;;;3.32;87.54;100780.97;5051483;28;20128;-43
2023/03/19 03:50:12;;;;;;;8.80;3.00;;;;;;;3.31;87.62;100782.09;5032253;28;20055;-44
2023/03/19 03:52:39;;;;;;;10.57;2.28;;;;;;;3.29;87.16;100782.38;5057344;28;20047;-47
2023/03/19 03:55:07;;;;;;;8.20;2.25;;;;;;;3.30;87.54;100792.22;5051113;28;20049;-44
2023/03/19 03:57:34;;;;;;;7.80;2.20;;;;;;;3.30;87.20;100808.63;5050480;28;20056;-44
2023/03/19 04:00:01;;;;;;;9.68;2.55;;;;;;;3.28;87.33;100807.31;5050174;28;20123;-43
2023/03/19 04:02:28;;;;;;;10.63;2.25;;;;;;;3.27;87.10;100809.22;5037561;28;20041;-44
2023/03/19 04:04:55;;;;;;;10.73;2.42;;;;;;;3.28;87.47;100805.38;5048213;28;20429;-44
2023/03/19 04:07:21;;;;;;;11.55;2.70;;;;;;;3.26;87.28;100806.75;5036184;28;20049;-44
2023/03/19 04:09:49;;;;;;;19.42;4.35;;;;;;;3.23;87.29;100799.16;5044309;28;20048;-48
2023/03/19 04:12:16;;;;;;;8.90;2.00;;;;;;;3.20;87.48;100805.22;5045833;28;20067;-43
2023/03/19 04:14:43;;;;;;;12.95;4.78;;;;;;;3.14;87.34;100804.47;5050083;28;20144;-43
2023/03/19 04:17:10;;;;;;;11.20;2.33;;;;;;;3.10;87.80;100806.16;5046572;28;20041;-44
2023/03/19 04:19:36;;;;;;;6.65;2.97;;;;;;;3.08;87.77;100803.72;5046060;28;20047;-49
2023/03/19 04:22:03;;;;;;;13.50;4.68;;;;;;;3.05;87.58;100809.78;5044928;28;20136;-45
2023/03/19 04:24:31;;;;;;;12.82;2.88;;;;;;;3.04;87.61;100816.34;5039286;28;20044;-46
2023/03/19 04:26:58;;;;;;;11.30;2.60;;;;;;;3.03;87.62;100820.22;5048443;28;20053;-48
2023/03/19 04:29:25;;;;;;;12.30;2.35;;;;;;;3.02;87.80;100824.03;5044091;28;20095;-43
2023/03/19 04:31:51;;;;;;;16.92;2.78;;;;;;;2.99;87.74;100813.69;5045229;28;20099;-44
2023/03/19 04:34:18;;;;;;;11.82;2.97;;;;;;;2.96;87.60;100800.63;5044891;28;20044;-48
2023/03/19 04:36:45;;;;;;;13.98;2.88;;;;;;;2.97;87.72;100798.69;5039729;28;20056;-43
2023/03/19 04:39:11;;;;;;;6.30;2.13;;;;;;;2.92;87.63;100810.50;5045108;28;20140;-44
2023/03/19 04:41:38;;;;;;;12.88;2.90;;;;;;;2.90;88.08;100820.09;5046853;28;20040;-44
2023/03/19 04:44:06;;;;;;;12.30;2.92;;;;;;;2.88;87.82;100823.16;5048195;28;20132;-44
2023/03/19 04:46:33;;;;;;;9.57;3.55;;;;;;;2.87;88.21;100813.31;5039944;28;20053;-44
2023/03/19 04:49:00;;;;;;;10.80;2.25;;;;;;;2.84;87.99;100808.41;5048476;28;20057;-44
2023/03/19 04:51:27;;;;;;;9.68;3.60;;;;;;;2.83;88.19;100822.38;5040232;28;20037;-48
2023/03/19 04:53:54;;;;;;;14.77;2.70;;;;;;;2.80;88.39;100823.78;5026225;28;20049;-44
2023/03/19 04:56:20;;;;;;;11.30;2.60;;;;;;;2.81;87.88;100824.56;5030995;28;20045;-44
2023/03/19 04:58:47;;;;;;;8.35;2.17;;;;;;;2.80;88.27;100807.38;5045345;28;20092;-48
2023/03/19 05:01:14;;;;;;;12.18;2.55;;;;;;;2.79;88.46;100805.75;5045363;28;20049;-44
2023/03/19 05:03:41;;;;;;;16.90;2.47;;;;;;;2.77;88.43;100802.50;5048782;28;20025;-44
2023/03/19 05:06:07;;;;;;;6.13;1.55;;;;;;;2.75;88.04;100821.13;5029882;28;20049;-44
2023/03/19 05:08:34;;;;;;;11.50;3.10;;;;;;;2.79;88.24;100826.78;5047370;28;20053;-46
2023/03/19 05:11:01;;;;;;;15.05;4.43;;;;;;;2.80;88.46;100842.94;5043514;28;20041;-46
2023/03/19 05:13:28;;;;;;;10.77;2.47;;;;;;;2.79;88.50;100852.22;5042831;28;20033;-47
2023/03/19 05:15:55;;;;;;;5.63;1.65;;;;;;;2.81;88.37;100836.34;5047597;28;20053;-43
2023/03/19 05:18:22;;;;;;;12.48;1.58;;;;;;;2.83;88.04;100825.13;5038821;28;20037;-46
2023/03/19 05:20:49;;;;;;;9.30;2.55;;;;;;;2.80;88.39;100828.44;5044512;28;20045;-44
2023/03/19 05:23:16;;;;;;;11.60;3.33;;;;;;;2.76;88.04;100828.19;5053711;28;20041;-43
2023/03/19 05:25:43;;;;;;;12.02;2.47;;;;;;;2.76;88.48;100833.66;5049298;28;20061;-44
2023/03/19 05:28:11;;;;;;;13.40;2.35;;;;;;;2.73;88.20;100838.88;5043632;28;20053;-44
2023/03/19 05:30:38;;;;;;;11.10;2.30;;;;;;;2.72;88.43;100838.09;5042603;28;20053;-44
2023/03/19 05:33:05;;;;;;;12.60;3.05;;;;;;;2.71;88.45;100833.72;5048007;28;20118;-44
2023/03/19 05:35:32;;;;;;;16.83;2.97;;;;;;;2.69;88.70;100844.13;5040082;28;20430;-44
2023/03/19 05:37:59;;;;;;;10.05;2.40;;;;;;;2.68;88.40;100841.69;5046070;28;20045;-44
2023/03/19 05:40:27;;;;;;;14.43;3.42;;;;;;;2.66;88.49;100850.19;5046810;28;20049;-49
2023/03/19 05:42:53;;;;;;;8.48;3.00;;;;;;;2.63;88.22;100839.81;5049577;28;20045;-44
2023/03/19 05:45:20;;;;;;;11.18;2.33;;;;;;;2.61;88.71;100839.31;5048618;28;20045;-43
2023/03/19 05:47:47;;;;;;;11.70;2.13;;;;;;;2.60;88.47;100847.78;5047530;28;20052;-43
2023/03/19 05:50:16;;;;;;;9.18;1.95;;;;;;;2.60;88.75;100851.34;5039176;28;20527;-44
2023/03/19 05:52:43;;;;;;;21.05;2.58;;;;;;;2.57;88.30;100840.97;5036954;28;20080;-44
2023/03/19 05:55:10;;;;;;;11.05;1.63;;;;;;;2.58;88.57;100848.09;5039580;28;20044;-43
2023/03/19 05:57:37;;;;;;;5.22;1.95;;;;;;;2.59;88.71;100863.38;5045124;28;20453;-44
2023/03/19 06:00:06;;;;;;;4.43;1.77;;;;;;;2.56;88.70;100869.44;5042858;28;20103;-44
2023/03/19 06:02:34;;;;;;;12.48;1.88;;;;;;;2.55;88.75;100858.78;5063168;28;20044;-44
2023/03/19 06:05:01;;;;;;;10.07;2.13;;;;;;;2.54;88.50;100851.69;5055848;28;20063;-44
2023/03/19 06:07:28;;;;;;;14.63;3.88;;;;;;;2.52;88.85;100854.69;5048527;28;20063;-44
2023/03/19 06:09:55;;;;;;;7.50;2.72;;;;;;;2.53;88.50;100877.38;5053839;28;20053;-44
2023/03/19 06:12:22;;;;;;;8.02;2.50;;;;;;;2.49;88.50;100863.47;5045619;28;20041;-44
2023/03/19 06:14:49;;;;;;;11.07;2.65;;;;;;;2.47;88.97;100868.41;5061365;28;20047;-43
2023/03/19 06:17:16;;;;;;;5.25;2.65;;;;;;;2.45;88.62;100871.44;5040499;28;20049;-51
2023/03/19 06:19:42;;;;;;;3.97;1.80;;;;;;;2.44;88.77;100869.81;5056508;28;20556;-49
2023/03/19 06:22:10;;;;;;;9.57;2.00;;;;;;;2.43;88.66;100868.19;5041909;28;20053;-43
2023/03/19 06:24:36;;;;;;;14.25;3.22;;;;;;;2.41;88.85;100875.03;5047446;28;20045;-48
2023/03/19 06:27:04;;;;;;;10.07;2.65;;;;;;;2.37;89.04;100877.53;5035035;28;20519;-43
2023/03/19 06:29:31;;;;;;;9.38;2.05;;;;;;;2.33;88.66;100879.19;5048561;28;20044;-44
2023/03/19 06:31:58;;;;;;;6.80;2.47;;;;;;;2.33;88.97;100889.34;5048266;28;20041;-47
2023/03/19 06:34:25;;;;;;;9.75;2.53;;;;;;;2.31;88.81;100881.41;5042539;28;20132;-44
2023/03/19 06:36:52;;;;;;;22.60;4.30;;;;;;;2.33;89.17;100892.84;5049240;28;20044;-44
2023/03/19 06:39:20;;;;;;;14.80;2.75;;;;;;;2.34;89.14;100904.59;5050770;28;20028;-43
2023/03/19 06:41:47;;;;;;;15.88;2.70;;;;;;;2.35;89.11;100903.50;5046062;28;20054;-44
2023/03/19 06:44:14;;;;;;;12.27;3.28;;;;;;;2.35;89.15;100900.78;5043360;28;20095;-44
2023/03/19 06:46:41;;;;;;;7.18;2.42;;;;;;;2.36;89.32;100899.66;5045560;28;20447;-44
2023/03/19 06:49:07;;;;;;;10.13;3.25;;;;;;;2.40;89.11;100908.94;5048207;28;20764;-44
2023/03/19 06:51:34;;;;;;;11.02;2.65;;;;;;;2.43;88.97;100922.03;5041958;28;20057;-44
2023/03/19 06:54:01;;;;;;;7.30;1.95;;;;;;;2.45;89.26;100908.88;5048231;28;20049;-43
2023/03/19 06:56:28;;;;;;;19.50;3.00;;;;;;;2.46;89.14;100910.53;5050128;28;20048;-44
2023/03/19 06:58:55;;;;;;;9.10;2.40;;;;;;;2.50;88.89;100921.66;5052140;28;20047;-44
2023/03/19 07:01:22;;;;;;;12.40;2.30;;;;;;;2.50;89.16;100906.09;5050030;28;20048;-43
2023/03/19 07:03:50;;;;;;;5.05;2.28;;;;;;;2.53;89.22;100900.06;5055613;28;20041;-44
2023/03/19 07:06:16;;;;;;;7.43;1.85;;;;;;;2.57;89.45;100914.75;5014471;28;20448;-44
2023/03/19 07:08:46;;;;;;;14.50;3.53;;;;;;;2.61;89.21;100924.03;5038662;28;20073;-43
2023/03/19 07:11:13;;;;;;;5.68;2.42;;;;;;;2.63;89.18;100916.34;5050772;28;20119;-43
2023/03/19 07:13:41;;;;;;;9.65;2.42;;;;;;;2.65;89.31;100927.81;5062567;28;20041;-43
2023/03/19 07:16:07;;;;;;;8.55;1.95;;;;;;;2.67;89.25;100933.00;5048748;28;20775;-44
2023/03/19 07:18:34;;;;;;;7.32;2.00;;;;;;;2.68;89.34;100937.34;5048668;28;20444;-43
2023/03/19 07:21:01;;;;;;;11.80;3.15;;;;;;;2.72;89.08;100939.25;5049074;28;20037;-43
2023/03/19 07:23:28;;;;;;;9.45;3.15;;;;;;;2.77;89.24;100932.91;5044317;28;20178;-46
2023/03/19 07:25:55;;;;;;;14.95;2.45;;;;;;;2.81;89.14;100934.75;5040338;28;20046;-44
2023/03/19 07:28:21;;;;;;;9.85;2.38;;;;;;;2.87;88.94;100947.28;5043819;28;20107;-43
2023/03/19 07:30:51;;;;;;;21.15;3.88;;;;;;;2.91;89.21;100940.13;5048564;28;20131;-43
2023/03/19 07:33:20;;;;;;;10.70;1.83;;;;;;;2.96;88.83;100931.88;5042965;28;20130;-44
2023/03/19 07:35:46;;;;;;;16.20;2.53;;;;;;;3.02;89.02;100933.44;5046907;28;20060;-44
2023/03/19 07:38:13;;;;;;;11.68;2.47;;;;;;;3.08;89.37;100940.50;5045989;28;20069;-44
2023/03/19 07:40:40;;;;;;;11.57;2.30;;;;;;;3.15;89.00;100944.81;5040077;28;20494;-44
2023/03/19 07:43:24;;;;;;;9.27;2.03;;;;;;;3.25;88.75;100944.69;5043007;28;20041;-44
2023/03/19 07:45:52;;;;;;;11.32;1.95;;;;;;;3.33;88.77;100946.78;5047991;28;20063;-43
2023/03/19 07:48:18;;;;;;;6.32;1.85;;;;;;;3.41;89.10;100949.69;5049459;28;20140;-44
2023/03/19 07:50:45;;;;;;;9.50;2.17;;;;;;;3.49;88.77;100945.47;5045033;28;20055;-44
2023/03/19 07:53:13;;;;;;;15.02;2.78;;;;;;;3.56;88.63;100951.41;5040325;28;20049;-49
2023/03/19 07:55:40;;;;;;;5.10;2.17;;;;;;;3.62;88.35;100944.75;5047334;28;20041;-44
2023/03/19 07:58:06;;;;;;;10.77;1.75;;;;;;;3.66;88.56;100954.00;5047770;28;20041;-46
2023/03/19 08:00:33;;;;;;;10.90;2.33;;;;;;;3.71;88.35;100951.19;5041093;28;20171;-44
2023/03/19 08:03:00;;;;;;;5.57;2.00;;;;;;;3.77;88.76;100946.47;5046269;28;20060;-44
2023/03/19 08:05:27;;;;;;;14.27;2.92;;;;;;;3.83;88.24;100951.59;5043853;28;20111;-45
2023/03/19 08:07:54;;;;;;;8.13;2.10;;;;;;;3.86;88.19;100955.66;5037650;28;20049;-44
2023/03/19 08:10:21;;;;;;;11.05;1.67;;;;;;;3.90;88.16;100952.03;5043404;28;20047;-47
2023/03/19 08:12:48;;;;;;;14.25;2.60;;;;;;;3.96;88.07;100939.06;5043931;28;20442;-44
2023/03/19 08:15:14;;;;;;;19.52;3.60;;;;;;;4.00;88.26;100946.38;5047878;28;20068;-44
2023/03/19 08:17:41;;;;;;;15.40;3.67;;;;;;;4.07;88.41;100957.00;5042277;28;20525;-43
2023/03/19 08:20:15;;;;;;;9.45;1.67;;;;;;;4.11;88.19;100947.88;5050793;28;20045;-46
2023/03/19 08:22:42;;;;;;;5.40;2.30;;;;;;;4.19;87.99;100965.56;5032192;28;20045;-44
2023/03/19 08:25:10;;;;;;;10.88;1.75;;;;;;;4.25;87.95;100967.94;5050278;28;20510;-43
2023/03/19 08:27:37;;;;;;;7.60;2.10;;;;;;;4.32;87.89;100962.06;5050413;28;20048;-50
2023/03/19 08:30:06;;;;;;;10.68;2.00;;;;;;;4.40;87.64;100952.34;5050657;28;20056;-44
2023/03/19 08:32:33;;;;;;;12.18;2.17;;;;;;;4.47;87.67;100950.06;5047290;28;20045;-54
2023/03/19 08:35:03;;;;;;;14.35;5.05;;;;;;;4.55;87.63;100943.88;5037752;28;20079;-45
2023/03/19 08:37:30;;;;;;;13.77;2.85;;;;;;;4.65;87.62;100962.91;5050133;28;20053;-44
2023/03/19 08:39:57;;;;;;;10.07;1.60;;;;;;;4.74;87.49;100969.31;5016128;28;20064;-49
2023/03/19 08:42:24;;;;;;;8.50;2.13;;;;;;;4.83;87.40;100965.59;5049322;28;20136;-44
2023/03/19 08:44:51;;;;;;;9.23;2.55;;;;;;;4.91;87.04;100962.16;5048758;28;20087;-43
2023/03/19 08:47:18;;;;;;;9.63;2.33;;;;;;;5.00;86.77;100964.19;5039181;28;20542;-47
2023/03/19 08:49:44;;;;;;;9.13;2.13;;;;;;;5.09;86.98;100954.94;5034277;28;20509;-46
2023/03/19 08:52:11;;;;;;;16.33;1.83;;;;;;;5.18;86.59;100961.38;5040040;28;20029;-44
2023/03/19 08:54:39;;;;;;;8.25;1.65;;;;;;;5.25;86.42;100964.53;5037233;28;20491;-44
2023/03/19 08:57:05;;;;;;;10.55;1.63;;;;;;;5.33;86.49;100974.78;5049599;28;20059;-46
2023/03/19 08:59:32;;;;;;;10.82;2.08;;;;;;;5.39;86.33;100965.34;5042389;28;20047;-46
2023/03/19 09:02:01;;;;;;;6.93;1.67;;;;;;;5.50;86.83;100963.22;5033928;28;20177;-45
2023/03/19 09:04:28;;;;;;;5.50;1.60;;;;;;;5.62;86.98;100959.94;5044941;28;20044;-48
2023/03/19 09:06:56;;;;;;;7.35;2.15;;;;;;;5.77;87.57;100957.66;5039205;28;20171;-49
2023/03/19 09:09:23;;;;;;;6.03;1.80;;;;;;;5.95;87.95;100964.19;5054406;28;20049;-49
2023/03/19 09:11:50;;;;;;;8.40;1.75;;;;;;;6.13;88.59;100972.28;5048385;28;20052;-44
2023/03/19 09:14:18;;;;;;;9.40;1.75;;;;;;;6.37;89.24;100972.00;5049244;28;20068;-51
2023/03/19 09:16:45;;;;;;;9.30;2.15;;;;;;;6.63;90.40;100977.69;5034272;28;20123;-44
2023/03/19 09:19:13;;;;;;;6.00;1.90;;;;;;;6.91;90.81;100970.88;5040373;28;20486;-45
2023/03/19 09:21:40;;;;;;;6.93;1.55;;;;;;;7.29;92.55;100969.31;5040022;28;20055;-48
2023/03/19 09:24:07;;;;;;;9.23;1.38;;;;;;;7.82;93.29;100977.41;5038112;28;20051;-50
2023/03/19 09:26:33;;;;;;;8.40;1.73;;;;;;;8.51;93.18;100980.25;5048202;28;20052;-46
2023/03/19 09:29:00;;;;;;;8.88;1.90;;;;;;;9.37;91.52;100980.06;5048287;28;20055;-46
2023/03/19 09:31:27;;;;;;;10.18;2.20;;;;;;;10.27;88.72;100976.59;5039621;28;20467;-45
2023/03/19 09:33:55;;;;;;;10.10;1.83;;;;;;;10.98;85.85;100984.78;5043459;28;20080;-48
2023/03/19 09:36:22;;;;;;;8.07;1.38;;;;;;;11.50;83.35;100984.97;5046599;28;20502;-44
2023/03/19 09:38:49;;;;;;;4.85;1.65;;;;;;;11.86;80.52;100984.22;5045432;28;20040;-45
2023/03/19 09:41:31;;;;;;;6.22;2.42;;;;;;;11.99;79.82;100980.25;5043624;28;20059;-45
2023/03/19 09:44:00;;;;;;;8.18;1.38;;;;;;;12.07;76.71;100987.66;5041555;28;20040;-49
2023/03/19 09:46:27;;;;;;;4.60;1.40;;;;;;;11.91;75.18;100992.28;5045691;28;20052;-45
2023/03/19 09:49:02;;;;;;;6.45;1.25;;;;;;;11.67;74.35;100976.44;5046909;28;20128;-45
2023/03/19 09:51:39;;;;;;;10.00;1.92;;;;;;;11.42;73.93;100983.94;5044653;28;20407;-45
2023/03/19 09:54:21;;;;;;;9.60;1.48;;;;;;;11.03;72.78;100976.25;5044018;28;20055;-46
2023/03/19 09:56:48;;;;;;;7.90;1.30;;;;;;;10.76;72.17;100968.53;5048939;28;20487;-45
2023/03/19 09:59:16;;;;;;;7.90;1.85;;;;;;;10.56;71.72;100978.50;5039641;28;20515;-48
2023/03/19 10:01:51;;;;;;;21.05;2.53;;;;;;;10.46;71.20;100967.03;5039265;28;20061;-46
2023/03/19 10:04:40;;;;;;;16.02;2.03;;;;;;;10.25;71.03;100967.84;5042738;28;20353;-45
2023/03/19 10:07:45;;;;;;;6.00;2.03;;;;;;;10.03;70.62;100982.00;5037829;28;20049;-45
2023/03/19 10:10:23;;;;;;;5.63;1.45;;;;;;;9.83;70.22;100977.22;5014235;28;20495;-45
2023/03/19 10:13:25;;;;;;;5.85;1.65;;;;;;;9.78;69.88;100975.47;5031441;28;20067;-45
2023/03/19 10:15:53;;;;;;;7.90;2.08;;;;;;;9.74;69.35;100977.25;5039891;28;20040;-46
2023/03/19 10:18:43;;;;;;;6.40;1.45;;;;;;;9.71;69.09;100963.31;5043832;28;20479;-44
2023/03/19 10:21:15;;;;;;;10.02;1.55;;;;;;;9.67;68.59;100973.41;5040684;28;20367;-49
2023/03/19 10:24:04;;;;;;;6.47;2.13;;;;;;;9.67;68.44;100976.16;5041130;28;20102;-46
2023/03/19 10:26:35;;;;;;;11.40;2.95;;;;;;;9.71;68.31;100977.94;5041102;28;20399;-46
2023/03/19 10:29:05;;;;;;;6.47;1.33;;;;;;;9.77;67.88;100965.53;5044595;28;20052;-45
2023/03/19 10:31:38;;;;;;;8.48;1.40;;;;;;;9.82;67.53;100970.09;5046295;28;20071;-45
2023/03/19 10:34:23;;;;;;;9.68;1.67;;;;;;;9.81;67.07;100968.47;5048689;28;20098;-45
2023/03/19 10:36:58;;;;;;;6.47;1.80;;;;;;;9.79;67.06;100960.47;5046824;28;20036;-46
2023/03/19 10:39:27;;;;;;;7.25;1.30;;;;;;;9.74;66.63;100973.72;5049274;28;20554;-44
2023/03/19 10:42:07;;;;;;;10.35;2.40;;;;;;;9.70;66.78;100969.97;5047881;28;20060;-45
2023/03/19 10:44:37;;;;;;;5.95;1.40;;;;;;;9.71;66.66;100971.59;5045889;28;20041;-44
2023/03/19 10:47:13;;;;;;;3.38;1.75;;;;;;;9.68;66.46;100966.75;5050162;28;20470;-45
2023/03/19 10:49:41;;;;;;;10.85;1.95;;;;;;;9.60;66.67;100960.13;5039435;28;20049;-44
2023/03/19 10:52:29;;;;;;;10.20;1.80;;;;;;;9.51;66.69;100959.34;5046319;28;20037;-45
2023/03/19 10:55:22;;;;;;;4.53;1.42;;;;;;;9.45;66.79;100970.94;5048007;28;20045;-50
2023/03/19 10:57:50;;;;;;;;;;;;;;;9.37;67.00;100977.31;5043068;28;20041;-44
2023/03/19 11:00:23;;;;;;;10.13;1.55;;;;;;;9.29;67.31;100978.16;5048255;28;19929;-44
2023/03/19 11:02:54;;;;;;;15.82;2.17;;;;;;;9.21;67.37;100974.28;5038580;28;20091;-44
2023/03/19 11:05:25;;;;;;;7.25;1.35;;;;;;;9.11;67.22;100975.44;5045797;28;20037;-46
2023/03/19 11:08:04;;;;;;;9.45;2.10;;;;;;;9.08;67.24;100973.31;5039363;28;20856;-45
2023/03/19 11:10:33;;;;;;;4.32;1.40;;;;;;;9.05;67.43;100979.50;5045498;28;20041;-44
2023/03/19 11:13:23;;;;;;;8.85;1.50;;;;;;;9.06;67.42;100967.31;5041558;28;20037;-44
2023/03/19 11:15:51;;;;;;;9.65;1.52;;;;;;;9.11;67.46;100967.16;5044353;28;20041;-44
2023/03/19 11:18:26;;;;;;;21.65;2.78;;;;;;;9.19;67.44;100962.72;5046919;28;20153;-44
2023/03/19 11:21:19;;;;;;;10.18;1.95;;;;;;;9.26;67.28;100965.81;5050547;28;20045;-54
2023/03/19 11:23:52;;;;;;;5.45;1.10;;;;;;;9.29;67.42;100962.38;5043653;28;20135;-44
2023/03/19 11:26:20;;;;;;;7.03;1.08;;;;;;;9.28;67.14;100963.53;5051325;28;20084;-46
2023/03/19 11:28:51;;;;;;;12.02;3.15;;;;;;;9.34;67.12;100964.16;5051820;28;20073;-45
2023/03/19 11:31:25;;;;;;;5.03;1.73;;;;;;;9.35;66.92;100966.56;5051574;28;20063;-45
2023/03/19 11:34:08;;;;;;;6.18;1.40;;;;;;;9.36;67.00;100956.34;5049765;28;20045;-47
2023/03/19 11:36:53;;;;;;;6.50;1.85;;;;;;;9.36;66.71;100943.34;5051382;28;20048;-46